sensor_id;sensor_type;location;lat;lon;timestamp;P1;durP1;ratioP1;P2;durP2;ratioP2
71427;SDS011;59246;59.102;37.928;2022-08-05T00:00:18;10.20;;;6.78;;
71427;SDS011;59246;59.102;37.928;2022-08-05T00:02:44;9.52;;;6.50;;
71427;SDS011;59246;59.102;37.928;2022-08-05T00:05:11;9.65;;;6.65;;
71427;SDS011;59246;59.102;37.928;2022-08-05T00:07:37;10.48;;;6.35;;
71427;SDS011;59246;59.102;37.928;2022-08-05T00:10:03;11.95;;;6.75;;
71427;SDS011;59246;59.102;37.928;2022-08-05T00:12:29;9.82;;;6.70;;
71427;SDS011;59246;59.102;37.928;2022-08-05T00:14:55;9.10;;;6.82;;
71427;SDS011;59246;59.102;37.928;2022-08-05T00:17:21;9.15;;;7.00;;
71427;SDS011;59246;59.102;37.928;2022-08-05T00:19:49;8.77;;;6.63;;
71427;SDS011;59246;59.102;37.928;2022-08-05T00:22:15;13.02;;;7.13;;
71427;SDS011;59246;59.102;37.928;2022-08-05T00:24:41;8.32;;;6.15;;
71427;SDS011;59246;59.102;37.928;2022-08-05T00:27:07;11.40;;;6.68;;
71427;SDS011;59246;59.102;37.928;2022-08-05T00:29:33;11.70;;;7.03;;
71427;SDS011;59246;59.102;37.928;2022-08-05T00:31:58;10.45;;;6.80;;
71427;SDS011;59246;59.102;37.928;2022-08-05T00:34:24;8.88;;;6.63;;
71427;SDS011;59246;59.102;37.928;2022-08-05T00:36:50;11.85;;;7.00;;
71427;SDS011;59246;59.102;37.928;2022-08-05T00:39:16;9.95;;;6.43;;
71427;SDS011;59246;59.102;37.928;2022-08-05T00:41:44;7.35;;;6.28;;
71427;SDS011;59246;59.102;37.928;2022-08-05T00:44:11;9.40;;;6.40;;
71427;SDS011;59246;59.102;37.928;2022-08-05T00:46:36;7.20;;;5.85;;
71427;SDS011;59246;59.102;37.928;2022-08-05T00:49:02;6.32;;;5.70;;
71427;SDS011;59246;59.102;37.928;2022-08-05T00:51:29;9.93;;;5.78;;
71427;SDS011;59246;59.102;37.928;2022-08-05T00:53:55;9.57;;;5.88;;
71427;SDS011;59246;59.102;37.928;2022-08-05T00:56:21;6.32;;;5.72;;
71427;SDS011;59246;59.102;37.928;2022-08-05T00:58:47;9.45;;;5.72;;
71427;SDS011;59246;59.102;37.928;2022-08-05T01:01:13;8.52;;;5.93;;
71427;SDS011;59246;59.102;37.928;2022-08-05T01:03:42;6.40;;;5.68;;
71427;SDS011;59246;59.102;37.928;2022-08-05T01:06:08;6.75;;;6.03;;
71427;SDS011;59246;59.102;37.928;2022-08-05T01:08:35;6.20;;;5.60;;
71427;SDS011;59246;59.102;37.928;2022-08-05T01:11:11;7.10;;;5.55;;
71427;SDS011;59246;59.102;37.928;2022-08-05T01:16:25;11.57;;;5.38;;
71427;SDS011;59246;59.102;37.928;2022-08-05T01:19:19;11.93;;;5.88;;
71427;SDS011;59246;59.102;37.928;2022-08-05T01:24:34;7.70;;;5.20;;
71427;SDS011;59246;59.102;37.928;2022-08-05T01:27:23;9.18;;;5.70;;
71427;SDS011;59246;59.102;37.928;2022-08-05T01:30:05;6.72;;;4.97;;
71427;SDS011;59246;59.102;37.928;2022-08-05T01:32:32;8.82;;;5.38;;
71427;SDS011;59246;59.102;37.928;2022-08-05T01:35:05;6.78;;;5.30;;
71427;SDS011;59246;59.102;37.928;2022-08-05T01:37:42;9.15;;;5.20;;
71427;SDS011;59246;59.102;37.928;2022-08-05T01:40:08;7.03;;;5.15;;
71427;SDS011;59246;59.102;37.928;2022-08-05T01:42:35;10.48;;;6.07;;
71427;SDS011;59246;59.102;37.928;2022-08-05T01:45:04;7.38;;;6.28;;
71427;SDS011;59246;59.102;37.928;2022-08-05T01:47:31;6.20;;;5.25;;
71427;SDS011;59246;59.102;37.928;2022-08-05T01:50:00;12.65;;;5.85;;
71427;SDS011;59246;59.102;37.928;2022-08-05T01:52:30;12.45;;;5.68;;
71427;SDS011;59246;59.102;37.928;2022-08-05T01:55:00;8.50;;;5.80;;
71427;SDS011;59246;59.102;37.928;2022-08-05T01:57:30;6.82;;;5.43;;
71427;SDS011;59246;59.102;37.928;2022-08-05T01:59:58;7.07;;;5.70;;
71427;SDS011;59246;59.102;37.928;2022-08-05T02:02:27;6.88;;;5.28;;
71427;SDS011;59246;59.102;37.928;2022-08-05T02:04:55;6.53;;;4.82;;
71427;SDS011;59246;59.102;37.928;2022-08-05T02:07:24;5.25;;;4.80;;
71427;SDS011;59246;59.102;37.928;2022-08-05T02:09:51;8.15;;;5.70;;
71427;SDS011;59246;59.102;37.928;2022-08-05T02:12:34;7.45;;;5.53;;
71427;SDS011;59246;59.102;37.928;2022-08-05T02:15:11;6.95;;;5.20;;
71427;SDS011;59246;59.102;37.928;2022-08-05T02:17:53;12.27;;;5.50;;
71427;SDS011;59246;59.102;37.928;2022-08-05T02:20:27;9.20;;;4.63;;
71427;SDS011;59246;59.102;37.928;2022-08-05T02:22:58;9.18;;;5.40;;
71427;SDS011;59246;59.102;37.928;2022-08-05T02:25:33;10.20;;;5.20;;
71427;SDS011;59246;59.102;37.928;2022-08-05T02:28:03;8.45;;;5.43;;
71427;SDS011;59246;59.102;37.928;2022-08-05T02:30:34;12.98;;;5.47;;
71427;SDS011;59246;59.102;37.928;2022-08-05T02:33:10;11.27;;;5.68;;
71427;SDS011;59246;59.102;37.928;2022-08-05T02:35:39;8.75;;;5.97;;
71427;SDS011;59246;59.102;37.928;2022-08-05T02:38:08;8.10;;;5.88;;
71427;SDS011;59246;59.102;37.928;2022-08-05T02:40:35;7.25;;;6.47;;
71427;SDS011;59246;59.102;37.928;2022-08-05T02:43:05;6.55;;;5.72;;
71427;SDS011;59246;59.102;37.928;2022-08-05T02:45:31;12.13;;;6.72;;
71427;SDS011;59246;59.102;37.928;2022-08-05T02:47:57;8.35;;;6.68;;
71427;SDS011;59246;59.102;37.928;2022-08-05T02:50:25;8.90;;;7.15;;
71427;SDS011;59246;59.102;37.928;2022-08-05T02:52:52;10.48;;;7.07;;
71427;SDS011;59246;59.102;37.928;2022-08-05T02:55:19;11.77;;;6.50;;
71427;SDS011;59246;59.102;37.928;2022-08-05T02:57:46;9.27;;;6.28;;
71427;SDS011;59246;59.102;37.928;2022-08-05T03:00:13;8.35;;;6.80;;
71427;SDS011;59246;59.102;37.928;2022-08-05T03:02:40;8.45;;;6.60;;
71427;SDS011;59246;59.102;37.928;2022-08-05T03:05:09;11.90;;;6.82;;
71427;SDS011;59246;59.102;37.928;2022-08-05T03:07:35;8.00;;;6.10;;
71427;SDS011;59246;59.102;37.928;2022-08-05T03:10:02;8.70;;;6.75;;
71427;SDS011;59246;59.102;37.928;2022-08-05T03:12:32;8.23;;;6.03;;
71427;SDS011;59246;59.102;37.928;2022-08-05T03:14:59;7.15;;;6.00;;
71427;SDS011;59246;59.102;37.928;2022-08-05T03:17:25;9.50;;;6.00;;
71427;SDS011;59246;59.102;37.928;2022-08-05T03:19:51;11.85;;;5.85;;
71427;SDS011;59246;59.102;37.928;2022-08-05T03:22:17;6.35;;;5.55;;
71427;SDS011;59246;59.102;37.928;2022-08-05T03:24:43;9.23;;;5.93;;
71427;SDS011;59246;59.102;37.928;2022-08-05T03:27:10;8.30;;;5.20;;
71427;SDS011;59246;59.102;37.928;2022-08-05T03:29:36;8.40;;;6.00;;
71427;SDS011;59246;59.102;37.928;2022-08-05T03:32:05;8.30;;;5.43;;
71427;SDS011;59246;59.102;37.928;2022-08-05T03:34:32;12.57;;;6.20;;
71427;SDS011;59246;59.102;37.928;2022-08-05T03:36:58;11.95;;;5.05;;
71427;SDS011;59246;59.102;37.928;2022-08-05T03:39:25;13.52;;;6.50;;
71427;SDS011;59246;59.102;37.928;2022-08-05T03:41:51;9.18;;;6.25;;
71427;SDS011;59246;59.102;37.928;2022-08-05T03:44:16;10.18;;;5.53;;
71427;SDS011;59246;59.102;37.928;2022-08-05T03:46:42;18.17;;;5.95;;
71427;SDS011;59246;59.102;37.928;2022-08-05T03:49:08;9.63;;;5.68;;
71427;SDS011;59246;59.102;37.928;2022-08-05T03:57:22;9.60;;;5.82;;
71427;SDS011;59246;59.102;37.928;2022-08-05T04:00:10;6.40;;;5.30;;
71427;SDS011;59246;59.102;37.928;2022-08-05T04:02:39;8.70;;;5.55;;
71427;SDS011;59246;59.102;37.928;2022-08-05T04:05:07;6.25;;;5.63;;
71427;SDS011;59246;59.102;37.928;2022-08-05T04:07:34;8.80;;;5.05;;
71427;SDS011;59246;59.102;37.928;2022-08-05T04:10:00;8.27;;;5.15;;
71427;SDS011;59246;59.102;37.928;2022-08-05T04:12:27;11.40;;;5.50;;
71427;SDS011;59246;59.102;37.928;2022-08-05T04:14:53;8.80;;;5.78;;
71427;SDS011;59246;59.102;37.928;2022-08-05T04:17:20;7.53;;;5.70;;
71427;SDS011;59246;59.102;37.928;2022-08-05T04:19:46;6.20;;;5.60;;
71427;SDS011;59246;59.102;37.928;2022-08-05T04:22:13;7.47;;;5.50;;
71427;SDS011;59246;59.102;37.928;2022-08-05T04:24:39;6.47;;;5.70;;
71427;SDS011;59246;59.102;37.928;2022-08-05T04:27:06;6.80;;;5.53;;
71427;SDS011;59246;59.102;37.928;2022-08-05T04:29:32;7.32;;;5.15;;
71427;SDS011;59246;59.102;37.928;2022-08-05T04:31:58;9.20;;;5.43;;
71427;SDS011;59246;59.102;37.928;2022-08-05T04:34:24;7.45;;;5.72;;
71427;SDS011;59246;59.102;37.928;2022-08-05T04:36:50;9.27;;;5.30;;
71427;SDS011;59246;59.102;37.928;2022-08-05T04:39:16;8.18;;;5.68;;
71427;SDS011;59246;59.102;37.928;2022-08-05T04:41:42;7.28;;;6.13;;
71427;SDS011;59246;59.102;37.928;2022-08-05T04:44:09;9.73;;;5.70;;
71427;SDS011;59246;59.102;37.928;2022-08-05T04:46:34;6.95;;;6.25;;
71427;SDS011;59246;59.102;37.928;2022-08-05T04:49:00;10.68;;;6.70;;
71427;SDS011;59246;59.102;37.928;2022-08-05T04:51:26;8.70;;;6.68;;
71427;SDS011;59246;59.102;37.928;2022-08-05T04:53:52;7.15;;;6.43;;
71427;SDS011;59246;59.102;37.928;2022-08-05T04:56:17;13.60;;;6.80;;
71427;SDS011;59246;59.102;37.928;2022-08-05T04:58:43;8.27;;;6.47;;
71427;SDS011;59246;59.102;37.928;2022-08-05T05:01:09;8.40;;;6.43;;
71427;SDS011;59246;59.102;37.928;2022-08-05T05:03:34;9.50;;;6.20;;
71427;SDS011;59246;59.102;37.928;2022-08-05T05:06:00;9.65;;;6.93;;
71427;SDS011;59246;59.102;37.928;2022-08-05T05:08:26;6.97;;;6.28;;
71427;SDS011;59246;59.102;37.928;2022-08-05T05:10:52;8.30;;;6.70;;
71427;SDS011;59246;59.102;37.928;2022-08-05T05:13:20;9.38;;;7.05;;
71427;SDS011;59246;59.102;37.928;2022-08-05T05:15:46;12.25;;;6.72;;
71427;SDS011;59246;59.102;37.928;2022-08-05T05:18:12;8.73;;;7.03;;
71427;SDS011;59246;59.102;37.928;2022-08-05T05:20:41;7.95;;;7.00;;
71427;SDS011;59246;59.102;37.928;2022-08-05T05:23:08;10.07;;;7.22;;
71427;SDS011;59246;59.102;37.928;2022-08-05T05:25:34;7.88;;;6.97;;
71427;SDS011;59246;59.102;37.928;2022-08-05T05:28:00;7.30;;;6.40;;
71427;SDS011;59246;59.102;37.928;2022-08-05T05:30:26;7.97;;;6.75;;
71427;SDS011;59246;59.102;37.928;2022-08-05T05:32:52;9.40;;;6.55;;
71427;SDS011;59246;59.102;37.928;2022-08-05T05:35:18;9.07;;;6.93;;
71427;SDS011;59246;59.102;37.928;2022-08-05T05:37:53;8.65;;;6.75;;
71427;SDS011;59246;59.102;37.928;2022-08-05T05:40:22;7.47;;;6.40;;
71427;SDS011;59246;59.102;37.928;2022-08-05T05:42:49;11.50;;;7.28;;
71427;SDS011;59246;59.102;37.928;2022-08-05T05:45:15;8.52;;;6.35;;
71427;SDS011;59246;59.102;37.928;2022-08-05T05:47:42;10.98;;;6.60;;
71427;SDS011;59246;59.102;37.928;2022-08-05T05:50:09;7.55;;;6.75;;
71427;SDS011;59246;59.102;37.928;2022-08-05T05:52:36;8.10;;;6.88;;
71427;SDS011;59246;59.102;37.928;2022-08-05T05:55:03;8.15;;;6.78;;
71427;SDS011;59246;59.102;37.928;2022-08-05T05:57:35;7.13;;;6.43;;
71427;SDS011;59246;59.102;37.928;2022-08-05T06:00:03;8.50;;;7.70;;
71427;SDS011;59246;59.102;37.928;2022-08-05T06:02:29;8.15;;;6.88;;
71427;SDS011;59246;59.102;37.928;2022-08-05T06:04:55;9.00;;;7.03;;
71427;SDS011;59246;59.102;37.928;2022-08-05T06:07:21;9.85;;;7.13;;
71427;SDS011;59246;59.102;37.928;2022-08-05T06:09:47;8.43;;;6.97;;
71427;SDS011;59246;59.102;37.928;2022-08-05T06:12:12;7.90;;;7.07;;
71427;SDS011;59246;59.102;37.928;2022-08-05T06:14:38;10.38;;;6.20;;
71427;SDS011;59246;59.102;37.928;2022-08-05T06:17:04;7.97;;;7.28;;
71427;SDS011;59246;59.102;37.928;2022-08-05T06:19:43;10.60;;;6.88;;
71427;SDS011;59246;59.102;37.928;2022-08-05T06:22:09;7.75;;;6.70;;
71427;SDS011;59246;59.102;37.928;2022-08-05T06:24:39;7.85;;;6.88;;
71427;SDS011;59246;59.102;37.928;2022-08-05T06:27:06;8.35;;;6.50;;
71427;SDS011;59246;59.102;37.928;2022-08-05T06:29:32;7.32;;;6.57;;
71427;SDS011;59246;59.102;37.928;2022-08-05T06:32:00;7.65;;;6.38;;
71427;SDS011;59246;59.102;37.928;2022-08-05T06:34:26;10.48;;;7.43;;
71427;SDS011;59246;59.102;37.928;2022-08-05T06:36:52;9.25;;;7.13;;
71427;SDS011;59246;59.102;37.928;2022-08-05T06:39:17;7.85;;;7.05;;
71427;SDS011;59246;59.102;37.928;2022-08-05T06:41:43;13.38;;;7.15;;
71427;SDS011;59246;59.102;37.928;2022-08-05T06:44:09;15.98;;;6.90;;
71427;SDS011;59246;59.102;37.928;2022-08-05T06:46:34;9.88;;;6.30;;
71427;SDS011;59246;59.102;37.928;2022-08-05T06:49:00;11.68;;;6.53;;
71427;SDS011;59246;59.102;37.928;2022-08-05T06:51:26;8.23;;;6.90;;
71427;SDS011;59246;59.102;37.928;2022-08-05T06:53:52;8.88;;;6.05;;
71427;SDS011;59246;59.102;37.928;2022-08-05T06:56:17;11.18;;;6.45;;
71427;SDS011;59246;59.102;37.928;2022-08-05T06:58:44;10.60;;;5.82;;
71427;SDS011;59246;59.102;37.928;2022-08-05T07:01:09;5.57;;;4.80;;
71427;SDS011;59246;59.102;37.928;2022-08-05T07:03:35;6.72;;;5.60;;
71427;SDS011;59246;59.102;37.928;2022-08-05T07:06:01;6.45;;;5.20;;
71427;SDS011;59246;59.102;37.928;2022-08-05T07:08:28;10.23;;;5.88;;
71427;SDS011;59246;59.102;37.928;2022-08-05T07:10:54;9.05;;;5.43;;
71427;SDS011;59246;59.102;37.928;2022-08-05T07:13:21;10.95;;;6.38;;
71427;SDS011;59246;59.102;37.928;2022-08-05T07:16:06;7.68;;;5.70;;
71427;SDS011;59246;59.102;37.928;2022-08-05T07:18:50;8.30;;;6.10;;
71427;SDS011;59246;59.102;37.928;2022-08-05T07:21:16;10.52;;;5.72;;
71427;SDS011;59246;59.102;37.928;2022-08-05T07:23:42;6.10;;;5.53;;
71427;SDS011;59246;59.102;37.928;2022-08-05T07:26:07;5.80;;;5.30;;
71427;SDS011;59246;59.102;37.928;2022-08-05T07:28:33;6.70;;;5.63;;
71427;SDS011;59246;59.102;37.928;2022-08-05T07:30:58;6.15;;;5.45;;
71427;SDS011;59246;59.102;37.928;2022-08-05T07:33:24;6.18;;;5.57;;
71427;SDS011;59246;59.102;37.928;2022-08-05T07:35:50;6.03;;;5.13;;
71427;SDS011;59246;59.102;37.928;2022-08-05T07:38:16;5.88;;;4.90;;
71427;SDS011;59246;59.102;37.928;2022-08-05T07:40:43;5.35;;;4.85;;
71427;SDS011;59246;59.102;37.928;2022-08-05T07:43:10;4.97;;;4.47;;
71427;SDS011;59246;59.102;37.928;2022-08-05T07:45:38;6.43;;;4.72;;
71427;SDS011;59246;59.102;37.928;2022-08-05T07:48:05;6.43;;;5.13;;
71427;SDS011;59246;59.102;37.928;2022-08-05T07:50:31;4.95;;;4.45;;
71427;SDS011;59246;59.102;37.928;2022-08-05T07:52:59;4.70;;;4.15;;
71427;SDS011;59246;59.102;37.928;2022-08-05T07:55:25;7.95;;;4.50;;
71427;SDS011;59246;59.102;37.928;2022-08-05T07:57:51;5.13;;;4.63;;
71427;SDS011;59246;59.102;37.928;2022-08-05T08:00:16;4.68;;;4.28;;
71427;SDS011;59246;59.102;37.928;2022-08-05T08:02:42;6.75;;;4.88;;
71427;SDS011;59246;59.102;37.928;2022-08-05T08:05:08;5.55;;;4.07;;
71427;SDS011;59246;59.102;37.928;2022-08-05T08:07:34;5.60;;;4.03;;
71427;SDS011;59246;59.102;37.928;2022-08-05T08:10:00;4.60;;;3.90;;
71427;SDS011;59246;59.102;37.928;2022-08-05T08:12:26;4.40;;;4.00;;
71427;SDS011;59246;59.102;37.928;2022-08-05T08:14:52;6.20;;;4.30;;
71427;SDS011;59246;59.102;37.928;2022-08-05T08:17:18;4.80;;;4.30;;
71427;SDS011;59246;59.102;37.928;2022-08-05T08:19:44;5.78;;;4.10;;
71427;SDS011;59246;59.102;37.928;2022-08-05T08:22:10;6.93;;;4.60;;
71427;SDS011;59246;59.102;37.928;2022-08-05T08:24:36;4.68;;;4.00;;
71427;SDS011;59246;59.102;37.928;2022-08-05T08:27:02;6.15;;;3.83;;
71427;SDS011;59246;59.102;37.928;2022-08-05T08:29:29;8.07;;;4.18;;
71427;SDS011;59246;59.102;37.928;2022-08-05T08:31:55;5.68;;;4.10;;
71427;SDS011;59246;59.102;37.928;2022-08-05T08:34:22;6.90;;;3.80;;
71427;SDS011;59246;59.102;37.928;2022-08-05T08:36:48;5.50;;;3.80;;
71427;SDS011;59246;59.102;37.928;2022-08-05T08:39:14;4.32;;;3.92;;
71427;SDS011;59246;59.102;37.928;2022-08-05T08:41:44;4.80;;;3.70;;
71427;SDS011;59246;59.102;37.928;2022-08-05T08:44:22;4.88;;;3.90;;
71427;SDS011;59246;59.102;37.928;2022-08-05T08:46:50;4.65;;;4.25;;
71427;SDS011;59246;59.102;37.928;2022-08-05T08:49:18;6.13;;;3.80;;
71427;SDS011;59246;59.102;37.928;2022-08-05T08:51:48;6.95;;;4.22;;
71427;SDS011;59246;59.102;37.928;2022-08-05T08:54:25;7.05;;;3.92;;
71427;SDS011;59246;59.102;37.928;2022-08-05T08:56:51;9.40;;;3.92;;
71427;SDS011;59246;59.102;37.928;2022-08-05T08:59:19;4.40;;;4.00;;
71427;SDS011;59246;59.102;37.928;2022-08-05T09:01:46;9.20;;;4.45;;
71427;SDS011;59246;59.102;37.928;2022-08-05T09:04:12;5.07;;;4.07;;
71427;SDS011;59246;59.102;37.928;2022-08-05T09:06:41;4.72;;;4.32;;
71427;SDS011;59246;59.102;37.928;2022-08-05T09:09:06;4.80;;;4.30;;
71427;SDS011;59246;59.102;37.928;2022-08-05T09:11:32;6.25;;;4.10;;
71427;SDS011;59246;59.102;37.928;2022-08-05T09:13:59;7.32;;;4.00;;
71427;SDS011;59246;59.102;37.928;2022-08-05T09:16:26;4.45;;;4.05;;
71427;SDS011;59246;59.102;37.928;2022-08-05T09:18:52;4.22;;;3.80;;
71427;SDS011;59246;59.102;37.928;2022-08-05T09:21:18;6.65;;;4.07;;
71427;SDS011;59246;59.102;37.928;2022-08-05T09:23:46;6.00;;;3.78;;
71427;SDS011;59246;59.102;37.928;2022-08-05T09:26:26;5.70;;;4.22;;
71427;SDS011;59246;59.102;37.928;2022-08-05T09:28:52;4.65;;;4.18;;
71427;SDS011;59246;59.102;37.928;2022-08-05T09:31:23;5.90;;;4.10;;
71427;SDS011;59246;59.102;37.928;2022-08-05T09:33:49;4.38;;;3.83;;
71427;SDS011;59246;59.102;37.928;2022-08-05T09:36:17;5.32;;;3.65;;
71427;SDS011;59246;59.102;37.928;2022-08-05T09:38:56;8.15;;;4.20;;
71427;SDS011;59246;59.102;37.928;2022-08-05T09:41:24;4.60;;;4.22;;
71427;SDS011;59246;59.102;37.928;2022-08-05T09:43:50;5.57;;;4.13;;
71427;SDS011;59246;59.102;37.928;2022-08-05T09:46:29;6.72;;;3.88;;
71427;SDS011;59246;59.102;37.928;2022-08-05T09:48:59;5.15;;;3.75;;
71427;SDS011;59246;59.102;37.928;2022-08-05T09:51:38;4.63;;;4.10;;
71427;SDS011;59246;59.102;37.928;2022-08-05T09:54:06;5.15;;;3.60;;
71427;SDS011;59246;59.102;37.928;2022-08-05T09:56:36;4.50;;;3.90;;
71427;SDS011;59246;59.102;37.928;2022-08-05T09:59:06;3.97;;;3.65;;
71427;SDS011;59246;59.102;37.928;2022-08-05T10:01:35;4.50;;;3.38;;
71427;SDS011;59246;59.102;37.928;2022-08-05T10:04:03;5.80;;;3.00;;
71427;SDS011;59246;59.102;37.928;2022-08-05T10:06:32;5.68;;;3.30;;
71427;SDS011;59246;59.102;37.928;2022-08-05T10:09:11;3.17;;;2.88;;
71427;SDS011;59246;59.102;37.928;2022-08-05T10:11:38;3.88;;;3.58;;
71427;SDS011;59246;59.102;37.928;2022-08-05T10:16:52;3.55;;;2.80;;
71427;SDS011;59246;59.102;37.928;2022-08-05T10:19:23;3.22;;;2.92;;
71427;SDS011;59246;59.102;37.928;2022-08-05T10:21:50;3.85;;;3.45;;
71427;SDS011;59246;59.102;37.928;2022-08-05T10:24:18;5.60;;;3.55;;
71427;SDS011;59246;59.102;37.928;2022-08-05T10:26:45;3.78;;;3.47;;
71427;SDS011;59246;59.102;37.928;2022-08-05T10:29:13;3.78;;;3.30;;
71427;SDS011;59246;59.102;37.928;2022-08-05T10:31:39;4.45;;;3.40;;
71427;SDS011;59246;59.102;37.928;2022-08-05T10:34:08;6.72;;;3.40;;
71427;SDS011;59246;59.102;37.928;2022-08-05T10:36:35;5.90;;;3.90;;
71427;SDS011;59246;59.102;37.928;2022-08-05T10:39:13;4.55;;;3.80;;
71427;SDS011;59246;59.102;37.928;2022-08-05T10:41:49;7.18;;;3.78;;
71427;SDS011;59246;59.102;37.928;2022-08-05T10:44:23;5.07;;;3.95;;
71427;SDS011;59246;59.102;37.928;2022-08-05T10:46:53;8.98;;;3.50;;
71427;SDS011;59246;59.102;37.928;2022-08-05T10:49:21;5.03;;;3.17;;
71427;SDS011;59246;59.102;37.928;2022-08-05T10:51:50;8.65;;;3.50;;
71427;SDS011;59246;59.102;37.928;2022-08-05T10:54:43;7.32;;;3.40;;
71427;SDS011;59246;59.102;37.928;2022-08-05T10:57:30;4.07;;;3.78;;
71427;SDS011;59246;59.102;37.928;2022-08-05T11:00:06;4.13;;;3.47;;
71427;SDS011;59246;59.102;37.928;2022-08-05T11:02:33;6.32;;;3.75;;
71427;SDS011;59246;59.102;37.928;2022-08-05T11:05:01;4.68;;;4.18;;
71427;SDS011;59246;59.102;37.928;2022-08-05T11:07:30;4.70;;;4.10;;
71427;SDS011;59246;59.102;37.928;2022-08-05T11:09:56;5.18;;;4.00;;
71427;SDS011;59246;59.102;37.928;2022-08-05T11:15:08;4.22;;;3.75;;
71427;SDS011;59246;59.102;37.928;2022-08-05T11:17:41;5.05;;;3.63;;
71427;SDS011;59246;59.102;37.928;2022-08-05T11:26:00;4.70;;;3.42;;
71427;SDS011;59246;59.102;37.928;2022-08-05T11:33:37;4.18;;;3.42;;
71427;SDS011;59246;59.102;37.928;2022-08-05T11:36:16;3.78;;;3.47;;
71427;SDS011;59246;59.102;37.928;2022-08-05T11:41:14;4.68;;;3.88;;
71427;SDS011;59246;59.102;37.928;2022-08-05T11:43:43;10.15;;;4.13;;
71427;SDS011;59246;59.102;37.928;2022-08-05T11:46:23;4.35;;;3.63;;
71427;SDS011;59246;59.102;37.928;2022-08-05T11:48:50;6.60;;;3.70;;
71427;SDS011;59246;59.102;37.928;2022-08-05T11:51:17;4.38;;;3.58;;
71427;SDS011;59246;59.102;37.928;2022-08-05T11:53:43;4.10;;;3.70;;
71427;SDS011;59246;59.102;37.928;2022-08-05T11:56:11;4.00;;;3.60;;
71427;SDS011;59246;59.102;37.928;2022-08-05T11:58:37;5.32;;;3.13;;
71427;SDS011;59246;59.102;37.928;2022-08-05T12:01:10;4.13;;;3.72;;
71427;SDS011;59246;59.102;37.928;2022-08-05T12:03:50;7.38;;;3.40;;
71427;SDS011;59246;59.102;37.928;2022-08-05T12:06:22;2.95;;;2.75;;
71427;SDS011;59246;59.102;37.928;2022-08-05T12:08:54;4.45;;;3.30;;
71427;SDS011;59246;59.102;37.928;2022-08-05T12:11:22;3.80;;;3.28;;
71427;SDS011;59246;59.102;37.928;2022-08-05T12:14:06;3.10;;;2.90;;
71427;SDS011;59246;59.102;37.928;2022-08-05T12:16:34;3.58;;;3.22;;
71427;SDS011;59246;59.102;37.928;2022-08-05T12:19:02;3.47;;;2.67;;
71427;SDS011;59246;59.102;37.928;2022-08-05T12:21:30;2.97;;;2.78;;
71427;SDS011;59246;59.102;37.928;2022-08-05T12:24:02;4.20;;;3.08;;
71427;SDS011;59246;59.102;37.928;2022-08-05T12:26:30;3.22;;;2.92;;
71427;SDS011;59246;59.102;37.928;2022-08-05T12:28:58;2.92;;;2.72;;
71427;SDS011;59246;59.102;37.928;2022-08-05T12:31:23;2.70;;;2.53;;
71427;SDS011;59246;59.102;37.928;2022-08-05T12:33:49;3.95;;;3.10;;
71427;SDS011;59246;59.102;37.928;2022-08-05T12:36:19;3.80;;;3.15;;
71427;SDS011;59246;59.102;37.928;2022-08-05T12:38:45;3.10;;;2.90;;
71427;SDS011;59246;59.102;37.928;2022-08-05T12:41:12;4.40;;;3.10;;
71427;SDS011;59246;59.102;37.928;2022-08-05T12:43:51;3.78;;;3.00;;
71427;SDS011;59246;59.102;37.928;2022-08-05T12:46:19;3.85;;;2.90;;
71427;SDS011;59246;59.102;37.928;2022-08-05T12:49:22;3.85;;;3.05;;
71427;SDS011;59246;59.102;37.928;2022-08-05T12:51:42;2.92;;;2.72;;
71427;SDS011;59246;59.102;37.928;2022-08-05T12:54:09;5.13;;;2.88;;
71427;SDS011;59246;59.102;37.928;2022-08-05T12:56:41;3.30;;;2.97;;
71427;SDS011;59246;59.102;37.928;2022-08-05T13:01:38;3.25;;;3.03;;
71427;SDS011;59246;59.102;37.928;2022-08-05T13:04:04;4.85;;;3.30;;
71427;SDS011;59246;59.102;37.928;2022-08-05T13:06:30;4.18;;;3.10;;
71427;SDS011;59246;59.102;37.928;2022-08-05T13:08:56;5.90;;;2.85;;
71427;SDS011;59246;59.102;37.928;2022-08-05T13:11:26;3.13;;;2.88;;
71427;SDS011;59246;59.102;37.928;2022-08-05T13:13:55;3.30;;;2.85;;
71427;SDS011;59246;59.102;37.928;2022-08-05T13:16:21;3.42;;;2.72;;
71427;SDS011;59246;59.102;37.928;2022-08-05T13:18:50;2.80;;;2.60;;
71427;SDS011;59246;59.102;37.928;2022-08-05T13:21:19;2.88;;;2.65;;
71427;SDS011;59246;59.102;37.928;2022-08-05T13:23:45;2.88;;;2.67;;
71427;SDS011;59246;59.102;37.928;2022-08-05T13:26:11;3.15;;;2.85;;
71427;SDS011;59246;59.102;37.928;2022-08-05T13:28:37;3.13;;;2.92;;
71427;SDS011;59246;59.102;37.928;2022-08-05T13:31:03;4.38;;;2.58;;
71427;SDS011;59246;59.102;37.928;2022-08-05T13:33:28;9.75;;;3.15;;
71427;SDS011;59246;59.102;37.928;2022-08-05T13:35:54;4.60;;;2.60;;
71427;SDS011;59246;59.102;37.928;2022-08-05T13:38:20;4.63;;;2.75;;
71427;SDS011;59246;59.102;37.928;2022-08-05T13:40:45;2.55;;;2.38;;
71427;SDS011;59246;59.102;37.928;2022-08-05T13:43:14;4.38;;;2.55;;
71427;SDS011;59246;59.102;37.928;2022-08-05T13:45:40;4.03;;;2.78;;
71427;SDS011;59246;59.102;37.928;2022-08-05T13:48:06;3.10;;;2.80;;
71427;SDS011;59246;59.102;37.928;2022-08-05T13:50:32;5.30;;;2.63;;
71427;SDS011;59246;59.102;37.928;2022-08-05T13:52:58;2.60;;;2.40;;
71427;SDS011;59246;59.102;37.928;2022-08-05T13:55:24;9.00;;;2.88;;
71427;SDS011;59246;59.102;37.928;2022-08-05T13:57:50;3.67;;;2.47;;
71427;SDS011;59246;59.102;37.928;2022-08-05T14:00:16;4.85;;;3.00;;
71427;SDS011;59246;59.102;37.928;2022-08-05T14:02:42;2.63;;;2.42;;
71427;SDS011;59246;59.102;37.928;2022-08-05T14:05:08;8.07;;;2.63;;
71427;SDS011;59246;59.102;37.928;2022-08-05T14:07:38;3.72;;;2.75;;
71427;SDS011;59246;59.102;37.928;2022-08-05T14:10:13;3.28;;;2.78;;
71427;SDS011;59246;59.102;37.928;2022-08-05T14:12:40;4.63;;;2.92;;
71427;SDS011;59246;59.102;37.928;2022-08-05T14:15:07;4.00;;;3.35;;
71427;SDS011;59246;59.102;37.928;2022-08-05T14:17:33;4.28;;;2.97;;
71427;SDS011;59246;59.102;37.928;2022-08-05T14:19:59;3.42;;;2.75;;
71427;SDS011;59246;59.102;37.928;2022-08-05T14:22:24;7.05;;;3.13;;
71427;SDS011;59246;59.102;37.928;2022-08-05T14:24:50;3.83;;;3.00;;
71427;SDS011;59246;59.102;37.928;2022-08-05T14:27:16;3.38;;;3.05;;
71427;SDS011;59246;59.102;37.928;2022-08-05T14:29:42;4.00;;;2.70;;
71427;SDS011;59246;59.102;37.928;2022-08-05T14:32:08;11.65;;;3.35;;
71427;SDS011;59246;59.102;37.928;2022-08-05T14:34:34;3.63;;;2.97;;
71427;SDS011;59246;59.102;37.928;2022-08-05T14:37:00;7.60;;;2.83;;
71427;SDS011;59246;59.102;37.928;2022-08-05T14:39:26;10.65;;;3.25;;
71427;SDS011;59246;59.102;37.928;2022-08-05T14:41:51;3.65;;;3.00;;
71427;SDS011;59246;59.102;37.928;2022-08-05T14:44:17;3.10;;;2.80;;
71427;SDS011;59246;59.102;37.928;2022-08-05T14:46:43;5.93;;;3.92;;
71427;SDS011;59246;59.102;37.928;2022-08-05T14:49:08;8.32;;;2.85;;
71427;SDS011;59246;59.102;37.928;2022-08-05T14:51:35;13.73;;;3.80;;
71427;SDS011;59246;59.102;37.928;2022-08-05T14:54:07;3.28;;;3.00;;
71427;SDS011;59246;59.102;37.928;2022-08-05T14:56:33;7.68;;;3.28;;
71427;SDS011;59246;59.102;37.928;2022-08-05T14:58:59;7.30;;;2.80;;
71427;SDS011;59246;59.102;37.928;2022-08-05T15:01:26;4.70;;;3.28;;
71427;SDS011;59246;59.102;37.928;2022-08-05T15:03:52;4.20;;;2.90;;
71427;SDS011;59246;59.102;37.928;2022-08-05T15:06:17;3.08;;;2.78;;
71427;SDS011;59246;59.102;37.928;2022-08-05T15:08:43;7.07;;;3.58;;
71427;SDS011;59246;59.102;37.928;2022-08-05T15:11:09;4.85;;;2.55;;